Latest Coastal Weather Observations for Port Fairy

IDV60701

Issued at 7:43 pm EDT Wednesday 4 March 2015 (issued every 10 minutes, with the page automatically refreshed every 10 minutes)

About coastal observations | Map of coastal stations | Coastal observations for VIC | Marine services | Other Formats
Station Details ID: 090175 Name: PORT FAIRY AWS Lat: -38.39 Lon: 142.23 Height: 10.0 m
Data from the previous 72 hours. | See also: Recent months at Port Fairy
Date/Time
EDT
Temp

°C
Wind Pressure Rain
since 9am
mm
Weather Cloud Vis
km
Sea
Height
m
Swell
Dir
 
Speed
knots
Gust
knots
hPa Trend Height
m
Period
s
Dir
04/07:30pm 17.7 WNW 14 23 1010.7 - 0.0 - - - - - - -
04/07:03pm 18.1 WNW 16 29 1011.1 - 0.0 - - - - - - -
04/07:00pm 18.3 WNW 17 27 1011.0 - 0.0 - - - - - - -
04/06:40pm 19.1 WNW 16 26 1010.7 - 0.0 - - - - - - -
04/06:30pm 19.2 W 20 30 1010.7 - 0.0 - - - - - - -
04/06:00pm 19.2 W 19 31 1010.7 - 0.0 - - - - - - -
04/05:52pm 19.2 W 19 31 1010.7 - 0.0 - - - - - - -
04/05:30pm 19.9 W 21 27 1011.1 - 0.0 - - - - - - -
04/05:08pm 20.1 W 16 26 1011.3 - 0.0 - - - - - - -
04/05:00pm 21.5 W 17 27 1011.3 - 0.0 - - - - - - -
04/04:30pm 20.4 W 21 29 1011.5 - 0.0 - - - - - - -
04/04:13pm 20.9 W 18 29 1011.7 - 0.0 - - - - - - -
04/04:00pm 20.0 WSW 19 27 1012.0 - 0.0 - - - - - - -
04/03:47pm 21.2 W 18 29 1012.1 - 0.0 - - - - - - -
04/03:30pm 21.8 W 17 25 1012.2 - 0.0 - - - - - - -
04/03:00pm 21.0 W 18 28 1012.6 - 0.0 - - - - - - -
04/02:59pm 20.9 W 18 28 1012.6 - 0.0 - - - - - - -
04/02:30pm 18.9 W 17 24 1013.1 - 0.0 - - - - - - -
04/02:15pm 19.5 W 17 27 1013.2 - 0.0 - - - - - - -
04/02:00pm 20.2 W 15 22 1013.2 - 0.0 - - - - - - -
04/01:30pm 18.4 WNW 13 22 1013.5 - 0.0 - - - - - - -
04/01:00pm 18.8 W 17 25 1013.8 - 0.0 - - - - - - -
04/12:30pm 18.8 WNW 12 21 1014.2 - 0.0 - - - - - - -
04/12:00pm 17.9 WNW 11 18 1014.5 - 0.0 - - - - - - -
04/11:30am 18.0 NW 9 15 1014.8 - 0.0 - - - - - - -
04/11:00am 16.4 NW 8 13 1015.0 - 0.0 - - - - - - -
04/10:30am 16.7 NW 8 12 1015.1 - 0.0 - - - - - - -
04/10:00am 15.5 WNW 8 14 1015.4 - 0.0 - - - - - - -
04/09:30am 15.4 NW 7 11 1015.1 - 0.0 - - - - - - -
04/09:00am 14.9 NW 6 10 1015.1 - 0.0 - - - - - - -
04/08:30am 14.1 NNW 7 11 1014.7 - 0.0 - - - - - - -
04/08:00am 13.8 NNW 6 9 1014.7 - 0.0 - - - - - - -
04/07:30am 13.5 NW 6 12 1014.2 - 0.0 - - - - - - -
04/07:00am 13.3 NNW 6 9 1014.2 - 0.0 - - - - - - -
04/06:30am 13.0 NNW 6 9 1014.3 - 0.0 - - - - - - -
04/06:00am 12.7 NW 6 8 1014.4 - 0.0 - - - - - - -
04/05:30am 12.5 NNW 6 9 1014.4 - 0.0 - - - - - - -
04/05:00am 12.4 NW 6 9 1014.6 - 0.0 - - - - - - -
04/04:30am 12.0 NW 6 8 1014.8 - 0.0 - - - - - - -
04/04:00am 11.6 NNW 6 9 1014.9 - 0.0 - - - - - - -
04/03:30am 11.3 NNW 6 8 1015.1 - 0.0 - - - - - - -
04/03:00am 11.3 NNW 6 9 1015.5 - 0.0 - - - - - - -
04/02:30am 10.7 NNW 5 7 1015.8 - 0.0 - - - - - - -
04/02:00am 10.8 NNW 5 6 1016.1 - 0.0 - - - - - - -
04/01:30am 11.1 NNW 5 8 1016.2 - 0.0 - - - - - - -
04/01:00am 11.6 N 4 5 1016.2 - 0.0 - - - - - - -
04/12:30am 12.7 NNW 4 7 1016.6 - 0.0 - - - - - - -
04/12:00am 13.5 NW 4 7 1016.9 - 0.0 - - - - - - -
 
Date/Time
EDT
Temp

°C
Wind Pressure Rain
since 9am
mm
Weather Cloud Vis
km
Sea
Height
m
Swell
Dir
 
Speed
knots
Gust
knots
hPa Trend Height
m
Period
s
Dir
03/11:30pm 14.6 NW 4 6 1017.3 - 0.0 - - - - - - -
03/11:00pm 14.8 W 6 9 1017.5 - 0.0 - - - - - - -
03/10:30pm 15.3 W 6 9 1017.6 - 0.0 - - - - - - -
03/10:00pm 15.7 W 6 10 1017.6 - 0.0 - - - - - - -
03/09:30pm 15.9 WSW 8 10 1017.4 - 0.0 - - - - - - -
03/09:00pm 16.1 WSW 9 12 1017.2 - 0.0 - - - - - - -
03/08:30pm 16.1 WSW 7 10 1017.0 - 0.0 - - - - - - -
03/08:00pm 16.4 SW 8 12 1016.7 - 0.0 - - - - - - -
03/07:30pm 17.1 SW 7 10 1016.7 - 0.0 - - - - - - -
03/07:00pm 17.5 SW 10 12 1016.5 - 0.0 - - - - - - -
03/06:30pm 17.8 SW 8 11 1016.5 - 0.0 - - - - - - -
03/06:00pm 18.1 SSW 8 11 1016.4 - 0.0 - - - - - - -
03/05:30pm 18.3 SSW 9 12 1016.4 - 0.0 - - - - - - -
03/05:00pm 18.7 SW 10 13 1016.5 - 0.0 - - - - - - -
03/04:30pm 19.0 SW 10 13 1016.6 - 0.0 - - - - - - -
03/04:00pm 19.2 SW 10 13 1016.9 - 0.0 - - - - - - -
03/03:30pm 19.6 SW 9 11 1017.2 - 0.0 - - - - - - -
03/03:00pm 19.4 SSW 8 12 1017.4 - 0.0 - - - - - - -
03/02:30pm 19.6 SSW 7 8 1017.5 - 0.0 - - - - - - -
03/02:00pm 19.7 SSW 8 11 1017.7 - 0.0 - - - - - - -
03/01:30pm 19.4 SW 8 10 1018.0 - 0.0 - - - - - - -
03/01:00pm 19.8 SW 7 10 1018.4 - 0.0 - - - - - - -
03/12:30pm 18.7 SSW 5 7 1018.8 - 0.0 - - - - - - -
03/12:00pm 18.6 SSW 3 4 1018.8 - 0.0 - - - - - - -
03/11:30am 18.3 S 4 5 1018.8 - 0.0 - - - - - - -
03/11:00am 18.1 SSW 4 8 1018.7 - 0.0 - - - - - - -
03/10:30am 18.2 S 6 9 1018.5 - 0.0 - - - - - - -
03/10:00am 17.8 SW 2 4 1018.3 - 0.0 - - - - - - -
03/09:30am 16.9 WSW 1 3 1018.2 - 0.0 - - - - - - -
03/09:00am 14.8 NW 1 3 1018.0 - 0.0 - - - - - - -
03/08:30am 13.6 NW 3 4 1017.8 - 0.0 - - - - - - -
03/08:00am 11.9 NW 4 5 1017.7 - 0.0 - - - - - - -
03/07:30am 11.1 NNW 2 3 1017.1 - 0.0 - - - - - - -
03/07:00am 11.4 NNW 2 3 1016.8 - 0.0 - - - - - - -
03/06:30am 12.1 NW 2 3 1016.6 - 0.0 - - - - - - -
03/06:00am 12.7 NW 2 3 1016.3 - 0.0 - - - - - - -
03/05:30am 12.6 CALM 0 0 1016.3 - 0.0 - - - - - - -
03/05:00am 13.2 CALM 0 0 1016.2 - 0.0 - - - - - - -
03/04:30am 14.1 SSE 2 2 1016.0 - 0.0 - - - - - - -
03/04:00am 14.5 SSE 3 4 1016.1 - 0.0 - - - - - - -
03/03:30am 15.0 SSE 3 4 1016.3 - 0.0 - - - - - - -
03/03:00am 15.4 SSE 4 5 1016.5 - 0.0 - - - - - - -
03/02:30am 15.6 S 4 7 1016.6 - 0.0 - - - - - - -
03/02:00am 15.7 S 4 5 1016.8 - 0.0 - - - - - - -
03/01:30am 15.9 S 5 6 1016.9 - 0.0 - - - - - - -
03/01:00am 16.1 S 5 7 1016.9 - 0.0 - - - - - - -
03/12:30am 16.2 SSE 7 10 1016.8 - 0.0 - - - - - - -
03/12:00am 16.4 S 8 10 1016.9 - 0.0 - - - - - - -
 
Date/Time
EDT
Temp

°C
Wind Pressure Rain
since 9am
mm
Weather Cloud Vis
km
Sea
Height
m
Swell
Dir
 
Speed
knots
Gust
knots
hPa Trend Height
m
Period
s
Dir
02/11:30pm 16.3 S 7 11 1017.1 - 0.0 - - - - - - -
02/11:00pm 16.5 S 6 8 1016.7 - 0.0 - - - - - - -
02/10:30pm 16.4 S 4 6 1016.7 - 0.0 - - - - - - -
02/10:00pm 16.4 S 4 5 1016.5 - 0.0 - - - - - - -
02/09:30pm 16.5 S 5 7 1016.3 - 0.0 - - - - - - -
02/09:00pm 16.2 S 2 4 1016.1 - 0.0 - - - - - - -
02/08:30pm 16.4 S 3 4 1015.8 - 0.0 - - - - - - -
02/08:00pm 16.5 S 4 5 1015.6 - 0.0 - - - - - - -
02/07:30pm 16.7 S 4 5 1015.4 - 0.0 - - - - - - -
02/07:00pm 16.9 SSW 6 8 1015.5 - 0.0 - - - - - - -
02/06:30pm 17.3 SSW 7 11 1015.3 - 0.0 - - - - - - -
02/06:00pm 17.4 SSW 9 13 1015.1 - 0.0 - - - - - - -
02/05:30pm 17.4 SSW 11 15 1014.7 - 0.0 - - - - - - -
02/05:00pm 17.9 SSW 10 14 1014.5 - 0.0 - - - - - - -
02/04:30pm 18.4 SSW 9 13 1014.4 - 0.0 - - - - - - -
02/04:00pm 18.3 S 9 12 1014.4 - 0.0 - - - - - - -
02/03:30pm 19.5 SSW 7 9 1014.6 - 0.0 - - - - - - -
02/03:00pm 20.3 SW 5 7 1015.1 - 0.0 - - - - - - -
02/02:30pm 20.7 SSE 6 7 1014.6 - 0.0 - - - - - - -
02/02:00pm 22.6 E 4 6 1015.0 - 0.0 - - - - - - -
02/01:30pm 22.1 ENE 4 5 1015.3 - 0.0 - - - - - - -
02/01:00pm 20.2 N 5 9 1016.6 - 0.0 - - - - - - -
02/12:30pm 20.4 NNE 6 10 1016.4 - 0.0 - - - - - - -
02/12:00pm 18.8 NE 7 11 1016.8 - 0.0 - - - - - - -
02/11:30am 17.9 NE 8 13 1017.3 - 0.0 - - - - - - -
02/11:00am 16.4 ENE 7 11 1017.7 - 0.0 - - - - - - -
02/10:30am 14.8 ENE 6 9 1017.7 - 0.0 - - - - - - -
02/10:00am 13.9 NE 5 8 1017.9 - 0.0 - - - - - - -
02/09:30am 12.7 NNE 3 5 1018.1 - 0.0 - - - - - - -
02/09:00am 11.1 NNE 2 4 1018.6 - 0.0 - - - - - - -
02/08:30am 9.4 NNE 3 4 1018.5 - 0.0 - - - - - - -
02/08:00am 7.4 N 3 4 1018.5 - 0.0 - - - - - - -
02/07:30am 7.1 N 4 4 1018.2 - 0.0 - - - - - - -
02/07:00am 7.0 NNE 3 4 1018.0 - 0.0 - - - - - - -
02/06:30am 7.1 N 4 5 1018.0 - 0.0 - - - - - - -
02/06:00am 7.2 N 2 3 1017.6 - 0.0 - - - - - - -
02/05:30am 7.3 NNE 3 4 1017.4 - 0.0 - - - - - - -
02/05:00am 7.8 N 4 5 1017.6 - 0.0 - - - - - - -
02/04:30am 7.9 N 3 5 1018.1 - 0.0 - - - - - - -
02/04:00am 8.2 NNW 2 3 1018.0 - 0.0 - - - - - - -
02/03:30am 9.0 N 3 4 1018.1 - 0.0 - - - - - - -
02/03:00am 9.9 N 3 5 1018.4 - 0.0 - - - - - - -
02/02:30am 10.7 N 3 5 1019.0 - 0.0 - - - - - - -
02/02:00am 13.5 SSE 5 8 1019.2 - 0.0 - - - - - - -
02/01:30am 12.7 SE 5 7 1019.2 - 0.0 - - - - - - -
02/01:00am 12.6 SE 5 6 1019.3 - 0.0 - - - - - - -
02/12:30am 13.2 SSE 6 7 1019.5 - 0.0 - - - - - - -
02/12:00am 13.7 SSE 6 8 1019.5 - 0.0 - - - - - - -
 
Date/Time
EDT
Temp

°C
Wind Pressure Rain
since 9am
mm
Weather Cloud Vis
km
Sea
Height
m
Swell
Dir
 
Speed
knots
Gust
knots
hPa Trend Height
m
Period
s
Dir
01/11:30pm 14.0 SSE 6 9 1019.7 - 0.0 - - - - - - -
01/11:00pm 13.8 SSE 8 11 1019.6 - 0.0 - - - - - - -
01/10:30pm 14.0 SSE 10 14 1019.6 - 0.0 - - - - - - -
01/10:00pm 14.2 SE 8 12 1019.7 - 0.0 - - - - - - -
01/09:30pm 14.1 SE 8 11 1019.2 - 0.0 - - - - - - -
01/09:00pm 14.2 SE 7 10 1019.0 - 0.0 - - - - - - -
01/08:30pm 14.6 SSE 8 11 1018.8 - 0.0 - - - - - - -
01/08:00pm 15.2 SSE 10 12 1018.6 - 0.0 - - - - - - -

Other Formats:

Comma delimited format used in spreadsheet applications
http://www.bom.gov.au/fwo/IDV60701/IDV60701.94830.axf

JavaScript Object Notation format (JSON) in row-major order
http://www.bom.gov.au/fwo/IDV60701/IDV60701.94830.json